x

8452951 - Potter Cove, Prudence Island, Ri (ptcr1) Weather Station

5:30 - Fri 19th Dec 2014 All times are EST. -5 hours from GMT.

  • Wind
    9mph, 15mph gusts
  • Luft Temp 35°f
  • Sea Pressure 1011.2mb
  • 8452951 - Potter Cove, Prudence Island, Ri
  • 8452951 - Potter Cove, Prudence Island, Ri

More Historic Weather Station data

Upgrade to MSW Pro to gain access to the past 30 days of data for over 8000 Wavebouys and Weather Stations around the globe.

Join Pro

Comparision Forecast

View Surf forecast
   
Fr 12/19 5:30 9 15 mph 1011.2mb 35f
5:24 8 14 mph 1011.2mb 35f
5:18 7 10 mph 1011.2mb 35f
5:12 8 13 mph 1011.2mb 35f
5:06 8 13 mph 1011.2mb 34f
5:00 7 11 mph 1011.1mb 35f
4:54 7 11 mph 1011.1mb 35f
4:48 7 11 mph 1011.1mb 35f
4:42 6 9 mph 1011mb 35f
4:36 7 9 mph 1011mb 35f
4:30 8 14 mph 1011.1mb 35f
4:24 7 13 mph 1011.1mb 35f
4:18 7 13 mph 1011.1mb 35f
4:12 7 11 mph 1011.1mb 35f
4:06 5 9 mph 1011.1mb 35f
4:00 8 14 mph 1011mb 35f
3:54 7 13 mph 1011.1mb 35f
3:48 6 11 mph 1011mb 35f
3:42 7 11 mph 1011mb 35f
3:36 6 10 mph 1011mb 36f
3:30 7 13 mph 1011mb 36f
3:24 7 11 mph 1011.1mb 36f
3:18 8 13 mph 1011.1mb 36f
3:12 7 14 mph 1011.1mb 36f
3:06 7 16 mph 1011.1mb 36f
3:00 8 15 mph 1011.1mb 36f
2:54 6 13 mph 1011.1mb 36f
2:48 5 13 mph 1011.1mb 36f
2:42 8 13 mph 1011mb 36f
2:36 7 13 mph 1011mb 36f
2:30 5 11 mph 1011mb 36f
2:24 5 10 mph 1011mb 36f
2:18 5 8 mph 1011mb 36f
2:12 5 10 mph 1011mb 36f
2:06 5 9 mph 1011mb 36f
2:00 6 10 mph 1011mb 36f
1:54 5 10 mph 1011mb 36f
1:48 5 9 mph 1011mb 36f
1:42 6 8 mph 1011mb 36f
1:36 6 11 mph 1011mb 36f
1:30 6 10 mph 1010.9mb 36f
1:24 6 8 mph 1010.9mb 36f
1:18 7 11 mph 1010.8mb 36f
1:12 6 9 mph 1010.9mb 36f
1:06 6 8 mph 1011mb 36f
1:00 6 8 mph 1011mb 36f
12:54 5 7 mph 1011mb 36f
12:48 6 9 mph 1011mb 36f
12:42 5 8 mph 1011mb 36f
12:36 5 8 mph 1010.9mb 36f
12:30 5 8 mph 1010.9mb 36f
12:24 6 8 mph 1011mb 36f
12:18 6 8 mph 1011mb 37f
12:12 5 8 mph 1011.1mb 37f
12:06 5 8 mph 1011.1mb 37f
12:00 6 10 mph 1011.1mb 37f
Do 12/18 11:54 6 9 mph 1011.2mb 37f
11:48 3 6 mph 1011.2mb 37f
11:42 6 9 mph 1011.1mb 37f
11:36 6 10 mph 1011mb 37f
11:30 6 10 mph 1011.1mb 37f
11:24 6 10 mph 1011.1mb 37f
11:18 6 10 mph 1011.1mb 37f
11:12 6 11 mph 1011.1mb 37f
11:06 5 8 mph 1011.1mb 37f
11:00 6 8 mph 1011.2mb 37f
10:54 6 10 mph 1011.1mb 36f
10:48 6 8 mph 1011mb 36f
10:42 6 9 mph 1011mb 36f
10:36 5 7 mph 1011mb 36f
10:30 5 8 mph 1011mb 36f
10:24 3 6 mph 1011mb 35f
10:18 5 7 mph 1011mb 35f
10:12 6 8 mph 1010.9mb 36f
10:06 5 8 mph 1010.9mb 36f
10:00 6 7 mph 1010.9mb 36f
9:54 5 8 mph 1010.8mb 36f
9:48 5 6 mph 1010.8mb 36f
9:42 5 8 mph 1010.8mb 36f
9:36 3 7 mph 1010.8mb 36f
9:30 5 7 mph 1010.8mb 36f
9:24 5 7 mph 1010.9mb 37f
9:18 5 8 mph 1011mb 37f
9:12 5 9 mph 1010.9mb 37f
9:06 8 11 mph 1010.9mb 37f
9:00 8 13 mph 1010.9mb 37f
8:54 6 9 mph 1010.9mb 37f
8:48 7 11 mph 1010.7mb 37f
8:42 8 15 mph 1010.6mb 37f
8:36 6 11 mph 1010.5mb 37f
8:30 8 13 mph 1010.5mb 38f
8:24 8 13 mph 1010.4mb 38f
8:18 7 11 mph 1010.5mb 38f
8:12 8 13 mph 1010.5mb 38f
8:06 9 15 mph 1010.4mb 38f
8:00 7 11 mph 1010.3mb 38f
7:54 6 10 mph 1010.3mb 38f
7:48 7 11 mph 1010.3mb 38f
7:42 7 13 mph 1010.5mb 38f
7:36 6 11 mph 1010.6mb 38f
7:30 8 15 mph 1010.8mb 38f
7:24 6 13 mph 1010.7mb 38f
7:18 7 11 mph 1010.8mb 38f
7:12 6 11 mph 1010.8mb 38f
7:06 6 8 mph 1010.8mb 38f
7:00 3 9 mph 1010.9mb 38f
6:54 8 14 mph 1010.9mb 39f
6:48 6 11 mph 1010.9mb 38f
6:42 6 10 mph 1011mb 39f
6:36 6 14 mph 1010.9mb 39f
6:30 8 11 mph 1010.9mb 39f
6:24 6 9 mph 1010.8mb 39f
6:18 7 13 mph 1010.8mb 39f
6:12 9 17 mph 1010.8mb 39f
6:06 7 11 mph 1010.7mb 39f
6:00 7 15 mph 1010.6mb 39f
5:54 10 17 mph 1010.5mb 39f
5:48 11 18 mph 1010.3mb 39f
5:42 9 16 mph 1010.2mb 39f
5:36 10 15 mph 1010mb 39f
5:30 8 15 mph 1010mb 39f
5:24 10 15 mph 1010mb 39f
5:18 8 13 mph 1010mb 39f
5:12 7 11 mph 1009.9mb 40f
5:06 7 11 mph 1009.9mb 40f
5:00 8 15 mph 1009.8mb 40f
4:54 9 16 mph 1009.7mb 40f
4:48 8 15 mph 1009.7mb 40f
4:42 9 17 mph 1009.7mb 40f
4:36 9 18 mph 1009.7mb 40f
4:30 9 15 mph 1009.6mb 40f
4:24 9 18 mph 1009.5mb 40f
4:18 7 14 mph 1009.4mb 40f
4:12 9 17 mph 1009.3mb 40f
4:06 9 16 mph 1009.2mb 41f
4:00 8 15 mph 1009.2mb 41f
3:54 8 15 mph 1009.1mb 41f
3:48 9 16 mph 1009mb 41f
3:42 8 15 mph 1008.9mb 41f
3:36 8 14 mph 1009mb 41f
3:30 8 14 mph 1008.9mb 41f
3:24 6 13 mph 1008.9mb 41f
3:18 10 20 mph 1008.9mb 41f
3:12 9 17 mph 1008.9mb 41f
3:06 9 16 mph 1008.9mb 42f
3:00 7 15 mph 1008.9mb 42f
2:54 9 17 mph 1008.8mb 41f
2:48 9 18 mph 1008.8mb 42f
2:42 9 16 mph 1008.7mb 42f
2:36 8 18 mph 1008.6mb 43f
2:30 7 16 mph 1008.6mb 43f
2:24 11 20 mph 1008.6mb 42f
2:18 9 18 mph 1008.5mb 42f
2:12 9 16 mph 1008.3mb 42f
2:06 11 20 mph 1008.3mb 42f
2:00 9 18 mph 1008.3mb 43f
1:54 9 17 mph 1008.2mb 43f
1:48 10 20 mph 1008.2mb 43f
1:42 10 16 mph 1008.1mb 42f
1:36 7 15 mph 1008.1mb 43f
1:30 10 23 mph 1008mb 43f
1:24 10 15 mph 1008mb 43f
1:18 11 20 mph 1008.1mb 42f
1:12 8 18 mph 1008.1mb 43f
1:06 11 22 mph 1008.1mb 43f
1:00 13 25 mph 1008.1mb 43f
12:54 10 20 mph 1008.1mb 43f
12:48 11 20 mph 1008.1mb 43f
12:42 13 25 mph 1008.1mb 42f
12:36 9 24 mph 1008.2mb 43f
12:30 11 22 mph 1008.3mb 43f
12:24 11 21 mph 1008.3mb 44f
12:18 13 24 mph 1008.4mb 43f
12:12 13 21 mph 1008.4mb 43f
12:06 13 23 mph 1008.4mb 43f
12:00 10 20 mph 1008.5mb 43f
11:54 13 23 mph 1008.6mb 42f
11:48 13 22 mph 1008.6mb 42f
11:42 10 23 mph 1008.6mb 42f
11:36 14 22 mph 1008.6mb 41f
11:30 13 22 mph 1008.7mb 42f
11:24 11 23 mph 1008.6mb 42f
11:18 10 20 mph 1008.6mb 43f
11:12 10 18 mph 1008.6mb 43f
11:06 10 18 mph 1008.6mb 43f
11:00 9 21 mph 1008.6mb 43f
10:54 11 23 mph 1008.6mb 43f
10:48 9 23 mph 1008.6mb 43f
10:42 11 22 mph 1008.5mb 43f
10:36 13 24 mph 1008.6mb 43f
10:30 10 21 mph 1008.6mb 43f
10:24 10 24 mph 1008.7mb 42f
10:18 13 25 mph 1008.8mb 42f
10:12 13 22 mph 1008.8mb 42f
10:06 13 26 mph 1008.9mb 42f
10:00 10 21 mph 1008.9mb 42f
9:54 13 23 mph 1008.9mb 42f
9:48 10 20 mph 1008.9mb 41f
9:42 11 20 mph 1008.9mb 41f
9:36 11 18 mph 1008.9mb 41f
9:30 8 17 mph 1008.8mb 41f
9:24 9 15 mph 1008.8mb 40f
9:18 9 16 mph 1008.8mb 40f
9:12 11 21 mph 1008.7mb 40f
9:06 8 13 mph 1008.7mb 40f
9:00 11 21 mph 1008.7mb 39f
8:54 11 18 mph 1008.7mb 39f
8:48 11 20 mph 1008.6mb 39f
8:42 8 20 mph 1008.5mb 39f
8:36 8 15 mph 1008.4mb 39f
8:30 8 17 mph 1008.4mb 38f
8:24 9 15 mph 1008.3mb 38f
8:18 10 20 mph 1008.3mb 38f
8:12 11 18 mph 1008.2mb 38f
8:06 8 17 mph 1008.1mb 38f
8:00 10 16 mph 1008mb 37f
7:54 8 15 mph 1008mb 37f
7:48 8 15 mph 1007.9mb 37f
7:42 9 17 mph 1007.8mb 37f
7:36 9 17 mph 1007.8mb 37f
7:30 9 15 mph 1007.7mb 37f
7:24 9 17 mph 1007.7mb 37f
7:18 10 17 mph 1007.7mb 37f
7:12 8 14 mph 1007.7mb 37f
7:06 10 18 mph 1007.6mb 37f
7:00 11 20 mph 1007.6mb 38f
6:54 11 21 mph 1007.6mb 38f
6:48 9 18 mph 1007.6mb 38f
6:42 11 20 mph 1007.5mb 38f
6:36 10 18 mph 1007.5mb 38f
6:30 11 22 mph 1007.5mb 38f
6:24 11 23 mph 1007.5mb 38f
6:18 9 17 mph 1007.5mb 39f
6:12 10 17 mph 1007.4mb 39f
6:06 8 16 mph 1007.3mb 39f
6:00 9 16 mph 1007.3mb 39f
5:54 8 20 mph 1007.2mb 39f
5:48 14 29 mph 1007.1mb 40f
5:42 9 14 mph 1007mb 40f
5:36 10 18 mph 1007mb 40f
5:30 10 16 mph 1006.9mb 40f
5:24 10 18 mph 1006.8mb 40f
5:18 9 17 mph 1006.9mb 40f
5:12 7 10 mph 1006.9mb 40f
5:06 9 15 mph 1006.8mb 39f
5:00 9 17 mph 1006.8mb 39f
4:54 7 10 mph 1006.8mb 39f
4:48 8 11 mph 1006.8mb 39f
4:42 7 13 mph 1006.7mb 39f
4:36 6 9 mph 1006.8mb 39f
4:30 6 9 mph 1006.8mb 39f
4:24 7 10 mph 1006.7mb 39f
4:18 7 10 mph 1006.7mb 39f
4:12 6 10 mph 1006.6mb 39f
4:06 8 11 mph 1006.6mb 39f
4:00 6 11 mph 1006.7mb 39f
3:54 6 10 mph 1006.6mb 39f
3:48 8 14 mph 1006.6mb 39f
3:42 8 14 mph 1006.6mb 39f
3:36 9 14 mph 1006.5mb 40f
3:30 7 11 mph 1006.5mb 40f
3:24 8 14 mph 1006.4mb 39f
3:18 6 11 mph 1006.4mb 39f
3:12 5 9 mph 1006.5mb 39f
3:06 7 11 mph 1006.5mb 39f
3:00 6 10 mph 1006.5mb 39f
2:54 7 13 mph 1006.7mb 39f
2:48 7 11 mph 1006.7mb 39f
2:42 8 14 mph 1006.6mb 39f
2:36 7 11 mph 1006.6mb 39f
2:30 7 14 mph 1006.6mb 39f
2:24 9 15 mph 1006.7mb 39f
2:18 9 15 mph 1006.7mb 39f
2:12 8 14 mph 1006.7mb 39f
2:06 10 16 mph 1006.7mb 39f
2:00 9 16 mph 1006.6mb 39f
1:54 9 15 mph 1006.6mb 39f
1:48 9 15 mph 1006.7mb 39f
1:42 9 16 mph 1006.7mb 39f
1:36 10 15 mph 1006.6mb 39f
1:30 9 15 mph 1006.5mb 39f
1:24 9 17 mph 1006.5mb 39f
1:18 10 15 mph 1006.4mb 39f
1:12 13 20 mph 1006.5mb 39f
1:06 10 16 mph 1006.5mb 39f
1:00 11 17 mph 1006.5mb 39f
12:54 11 18 mph 1006.5mb 39f
12:48 8 14 mph 1006.6mb 40f
12:42 9 18 mph 1006.6mb 40f
12:36 10 18 mph 1006.7mb 40f
12:30 13 18 mph 1006.7mb 40f
12:24 8 14 mph 1006.7mb 41f
12:18 6 10 mph 1006.8mb 41f
12:12 8 13 mph 1006.8mb 41f
12:06 9 18 mph 1006.8mb 41f
12:00 11 20 mph 1006.8mb 42f
Mi 12/17 11:54 10 16 mph 1006.7mb 42f
11:48 9 15 mph 1006.6mb 42f
11:42 8 16 mph 1006.6mb 42f
11:36 9 18 mph 1006.6mb 42f
11:30 11 16 mph 1006.6mb 42f
11:24 10 16 mph 1006.7mb 42f
11:18 9 14 mph 1006.6mb 42f
11:12 8 18 mph 1006.6mb 43f
11:06 7 11 mph 1006.7mb 43f
11:00 7 13 mph 1006.7mb 43f
10:54 6 13 mph 1006.8mb 43f
10:48 8 14 mph 1006.9mb 43f
10:42 9 14 mph 1007mb 43f
10:36 8 16 mph 1007mb 43f
10:30 9 17 mph 1007.1mb 43f
10:24 9 20 mph 1007.1mb 43f
10:18 9 15 mph 1007.2mb 44f
10:12 9 15 mph 1007.2mb 44f
10:06 9 14 mph 1007.1mb 44f
10:00 7 13 mph 1007.1mb 44f
9:54 8 13 mph 1007mb 44f
9:48 9 18 mph 1007mb 44f
9:42 8 15 mph 1006.9mb 44f
9:36 10 20 mph 1006.9mb 44f
9:30 7 13 mph 1006.8mb 44f
9:24 3 8 mph 1006.8mb 44f
9:18 5 10 mph 1006.8mb 44f
9:12 6 11 mph 1006.8mb 45f
9:06 7 14 mph 1006.7mb 45f
9:00 11 24 mph 1006.6mb 45f
8:54 10 23 mph 1006.7mb 45f
8:48 9 18 mph 1006.8mb 45f
8:42 14 24 mph 1006.7mb 46f
8:36 11 16 mph 1006.6mb 46f
8:30 9 17 mph 1006.6mb 46f
8:24 8 14 mph 1006.6mb 46f
8:18 8 17 mph 1006.6mb 46f
8:12 7 11 mph 1006.7mb 46f
8:06 8 16 mph 1006.8mb 46f
8:00 7 11 mph 1006.8mb 46f
7:54 6 10 mph 1006.9mb 46f
7:48 5 8 mph 1006.9mb 46f
7:42 6 10 mph 1006.8mb 46f
7:36 6 11 mph 1006.8mb 46f
7:30 6 8 mph 1006.8mb 46f
7:24 8 13 mph 1006.8mb 47f
7:18 7 13 mph 1006.8mb 47f
7:12 5 8 mph 1006.8mb 46f
7:06 6 9 mph 1006.7mb 46f
7:00 7 10 mph 1006.8mb 47f
6:54 6 13 mph 1006.8mb 47f
6:48 7 14 mph 1006.8mb 47f
6:42 7 13 mph 1006.8mb 47f
6:36 7 11 mph 1006.9mb 47f
6:30 6 10 mph 1006.9mb 47f
6:24 7 11 mph 1006.8mb 47f
6:18 6 10 mph 1006.9mb 47f
6:12 7 11 mph 1006.8mb 47f
6:06 7 11 mph 1006.7mb 47f
6:00 7 11 mph 1006.7mb 47f
5:54 7 15 mph 1006.6mb 48f
5:48 6 11 mph 1006.6mb 48f
5:42 7 11 mph 1006.6mb 48f
5:36 9 18 mph 1006.5mb 48f
5:30 8 13 mph 1006.5mb 48f
5:24 5 8 mph 1006.5mb 48f
5:18 5 7 mph 1006.4mb 48f
5:12 5 7 mph 1006.3mb 48f
5:06 3 6 mph 1006.2mb 48f
5:00 5 8 mph 1006.2mb 48f
4:54 6 10 mph 1006.1mb 48f
4:48 6 9 mph 1006mb 48f
4:42 7 13 mph 1005.9mb 48f
4:36 7 10 mph 1006mb 48f
4:30 8 14 mph 1006mb 48f
4:24 7 10 mph 1006mb 48f
4:18 7 11 mph 1006mb 48f
4:12 7 13 mph 1006mb 48f
4:06 7 10 mph 1005.9mb 48f
4:00 7 11 mph 1005.8mb 48f
3:54 7 13 mph 1005.8mb 48f
3:48 8 13 mph 1005.7mb 49f
3:42 9 16 mph 1005.6mb 49f
3:36 8 15 mph 1005.6mb 49f
3:30 9 15 mph 1005.5mb 49f
3:24 8 20 mph 1005.4mb 49f
3:18 8 16 mph 1005.4mb 49f
3:12 7 11 mph 1005.3mb 49f
3:06 8 15 mph 1005.2mb 50f
3:00 5 9 mph 1005.1mb 50f
2:54 6 10 mph 1005.1mb 51f
2:48 7 13 mph 1005.1mb 50f
2:42 7 15 mph 1005.1mb 49f
2:36 7 14 mph 1005mb 49f
2:30 6 14 mph 1005mb 50f
2:24 7 14 mph 1005mb 50f
2:18 8 15 mph 1005mb 49f
2:12 8 16 mph 1005mb 49f
2:06 9 18 mph 1005mb 49f
2:00 7 15 mph 1004.9mb 50f
1:54 9 14 mph 1004.8mb 51f
1:48 8 15 mph 1004.7mb 51f
1:42 9 15 mph 1004.6mb 51f
1:36 8 16 mph 1004.6mb 51f
1:30 10 17 mph 1004.5mb 51f
1:24 8 14 mph 1004.5mb 51f
1:18 6 14 mph 1004.6mb 51f
1:12 8 14 mph 1004.6mb 50f
1:06 6 10 mph 1004.6mb 50f
1:00 7 13 mph 1004.5mb 49f
12:54 9 16 mph 1004.5mb 50f
12:48 7 14 mph 1004.5mb 51f
12:42 8 17 mph 1004.6mb 50f
12:36 6 11 mph 1004.7mb 51f
12:30 7 13 mph 1004.7mb 50f
12:24 7 14 mph 1004.8mb 49f
12:18 5 9 mph 1004.9mb 49f
12:12 5 10 mph 1004.9mb 48f
12:06 7 13 mph 1005.1mb 47f
12:00 8 15 mph 1005.2mb 47f
11:54 7 14 mph 1005.2mb 47f
11:48 7 13 mph 1005.3mb 46f
11:42 5 9 mph 1005.4mb 46f
11:36 6 9 mph 1005.4mb 46f
11:30 5 10 mph 1005.3mb 46f
11:24 6 10 mph 1005.3mb 45f
11:18 5 7 mph 1005.4mb 46f
11:12 6 10 mph 1005.4mb 45f
11:06 3 9 mph 1005.5mb 45f
11:00 5 9 mph 1005.7mb 45f
10:54 5 8 mph 1005.7mb 45f
10:48 5 9 mph 1005.8mb 44f
10:42 5 7 mph 1005.9mb 44f
10:36 5 9 mph 1006mb 44f
10:30 3 7 mph 1006mb 44f
10:24 2 6 mph 1006mb 44f
10:18 3 7 mph 1006.1mb 44f
10:12 2 3 mph 1006.2mb 44f
10:06 3 7 mph 1006.3mb 44f
10:00 3 7 mph 1006.4mb 44f
9:54 3 7 mph 1006.4mb 43f
9:48 5 9 mph 1006.4mb 43f
9:42 3 7 mph 1006.4mb 43f
9:36 3 7 mph 1006.4mb 43f
9:30 2 6 mph 1006.3mb 44f
9:24 3 6 mph 1006.2mb 43f
9:18 2 5 mph 1006.2mb 43f
9:12 3 7 mph 1006.2mb 43f
9:06 5 8 mph 1006.1mb 43f
9:00 5 8 mph 1006mb 42f
8:54 5 9 mph 1006mb 42f
8:48 6 9 mph 1005.9mb 42f
8:42 5 10 mph 1005.8mb 42f
8:36 7 11 mph 1005.9mb 42f
8:30 6 10 mph 1005.9mb 42f
8:24 5 9 mph 1005.9mb 42f
8:18 5 9 mph 1005.9mb 42f
8:12 5 11 mph 1006mb 42f
8:06 6 11 mph 1005.9mb 42f
8:00 7 11 mph 1005.9mb 42f
7:54 5 9 mph 1005.9mb 42f
7:48 5 9 mph 1005.9mb 42f
7:42 5 9 mph 1006mb 42f
7:36 5 10 mph 1006mb 42f
7:30 3 8 mph 1005.9mb 42f
7:24 5 8 mph 1005.9mb 42f
7:18 5 10 mph 1005.9mb 42f
7:12 5 8 mph 1005.9mb 42f
7:06 5 8 mph 1005.9mb 42f
7:00 5 8 mph 1005.9mb 42f
6:54 3 6 mph 1006mb 42f
6:48 5 8 mph 1006mb 42f
6:42 5 8 mph 1006mb 42f
6:36 5 7 mph 1006mb 42f
6:30 5 6 mph 1006mb -
6:24 6 9 mph 1006mb -
6:18 6 9 mph 1006mb 42f
6:12 6 10 mph 1006mb 42f
6:06 5 8 mph 1006.2mb 42f
6:00 6 8 mph 1006.1mb 42f
5:54 6 9 mph 1006.1mb 42f
5:48 6 8 mph 1006.2mb 42f
5:42 6 10 mph 1006.2mb 42f
5:36 6 9 mph 1006.2mb 42f
5:30 7 10 mph 1006.1mb 42f
5:24 7 9 mph 1006.2mb 42f
5:18 7 10 mph 1006.1mb 42f
5:12 7 11 mph 1006.2mb 42f
5:06 9 11 mph 1006.2mb 42f
5:00 8 11 mph 1006.3mb 42f
4:54 8 10 mph 1006.3mb 42f
4:48 9 13 mph 1006.4mb 42f
4:42 8 13 mph 1006.5mb 42f
4:36 7 11 mph 1006.5mb 42f
4:30 8 13 mph 1006.5mb 42f
4:24 6 8 mph 1006.5mb 42f
4:18 9 13 mph 1006.5mb 42f
4:12 8 10 mph 1006.5mb 42f
4:06 6 9 mph 1006.9mb 42f
4:00 10 14 mph 1006.7mb 42f
3:54 13 16 mph 1006.7mb 42f
3:48 10 16 mph 1006.8mb 42f
3:42 11 17 mph 1006.9mb 42f
3:36 9 14 mph 1007.1mb 42f
3:30 6 10 mph 1007.3mb 42f
3:24 5 9 mph 1007.5mb 42f
3:18 5 8 mph 1007.7mb 42f
3:12 8 11 mph 1007.6mb 42f
3:06 8 11 mph 1007.7mb 42f
3:00 7 11 mph 1007.8mb 42f
2:54 7 10 mph 1007.9mb 42f
2:48 8 11 mph 1007.9mb 42f
2:42 9 11 mph 1007.9mb 42f
2:36 9 13 mph 1008mb 42f
2:30 9 11 mph 1008.1mb 42f
2:24 8 10 mph 1008.3mb 42f
2:18 8 11 mph 1008.4mb 42f
2:12 7 9 mph 1008.6mb 42f
2:06 8 9 mph 1008.7mb 42f
2:00 8 10 mph 1008.8mb 42f
1:54 9 11 mph 1008.7mb 42f
1:48 9 13 mph 1008.9mb 42f
1:42 11 14 mph 1008.9mb 42f
1:36 10 15 mph 1009mb 42f
1:30 11 15 mph 1009.2mb 43f
1:24 11 14 mph 1009.3mb 43f
1:18 11 14 mph 1009.5mb 43f
1:12 11 14 mph 1009.6mb 42f
1:06 9 13 mph 1009.8mb 42f
1:00 9 11 mph 1009.9mb 42f
12:54 9 11 mph 1010mb 42f
12:48 9 11 mph 1010.1mb 42f
12:42 7 10 mph 1010.3mb 42f
12:36 7 9 mph 1010.4mb 42f
12:30 6 8 mph 1010.6mb 42f
12:24 7 8 mph 1010.7mb 42f
12:18 7 9 mph 1010.9mb 42f
12:12 6 9 mph 1011.1mb 42f
12:06 7 9 mph 1011.1mb 42f
12:00 6 9 mph 1011.1mb 42f
Di 12/16 11:54 5 8 mph 1011.2mb 42f
11:48 6 9 mph 1011mb 42f
11:42 7 9 mph 1011.1mb 42f
11:36 7 9 mph 1011.1mb 42f
11:30 6 9 mph 1011.2mb 42f
11:24 8 9 mph 1011.2mb 42f
11:18 8 9 mph 1011.4mb 42f
11:12 7 8 mph 1011.5mb 42f
11:06 8 11 mph 1011.4mb 42f
11:00 8 10 mph 1011.4mb 42f
10:54 6 7 mph 1011.7mb 42f
10:48 7 9 mph 1011.7mb 42f
10:42 8 9 mph 1011.9mb 41f
10:36 8 10 mph 1011.9mb 41f
10:30 9 11 mph 1011.9mb 41f
10:24 8 10 mph 1012.2mb 41f
10:18 7 9 mph 1012.4mb 41f
10:12 7 9 mph 1012.5mb 41f
10:06 7 8 mph 1012.5mb 41f
10:00 6 8 mph 1012.7mb 41f
9:54 7 8 mph 1012.7mb 41f
9:48 7 8 mph 1012.8mb 41f
9:42 7 9 mph 1012.8mb 41f
9:36 6 8 mph 1012.9mb 41f
9:30 7 8 mph 1013mb 41f
9:24 6 7 mph 1013.2mb 41f
9:18 6 7 mph 1013.4mb 41f
9:12 5 6 mph 1013.5mb 41f
9:06 6 8 mph 1013.5mb 41f
9:00 5 6 mph 1013.6mb 41f
8:54 5 6 mph 1013.6mb 41f
8:48 3 6 mph 1013.7mb 41f
8:42 3 5 mph 1013.8mb 41f
8:36 3 6 mph 1013.9mb 42f
8:30 2 5 mph 1014mb 42f
8:24 2 5 mph 1013.9mb 42f
8:18 2 5 mph 1014mb 42f
8:12 3 6 mph 1014mb 42f
8:06 3 6 mph 1014mb 42f
8:00 3 6 mph 1014mb 42f
7:54 2 5 mph 1014mb 42f
7:48 2 3 mph 1014.1mb 42f
7:42  -  2 mph 1014mb 42f
7:36 3 5 mph 1013.8mb 42f
7:30 6 7 mph 1013.8mb 42f
7:24 2 3 mph 1014.1mb 42f
7:18 2 3 mph 1014.3mb 42f
7:12  -  1 mph 1014.5mb 42f
7:06 1 2 mph 1014.5mb 42f
7:00  -  2 mph 1014.7mb 42f
6:54  -  2 mph 1014.8mb 42f
6:48 2 5 mph 1014.8mb 42f
6:42 2 5 mph 1014.8mb 42f
6:36 2 5 mph 1014.8mb 42f
6:30 3 6 mph 1014.8mb 42f
6:24 3 5 mph 1014.9mb 42f
6:18 3 5 mph 1015.1mb 42f
6:12 2 3 mph 1015.2mb 42f
6:06 5 6 mph 1015.1mb 42f
6:00 3 5 mph 1015.3mb 42f
5:54 3 5 mph 1015.4mb 42f
5:48 3 6 mph 1015.4mb 42f
5:42 3 5 mph 1015.5mb 42f
5:36 3 5 mph 1015.7mb 42f
5:30 2
mph
1015.9mb 42f
5:24 2 3 mph 1015.9mb 41f
5:18 1 2 mph 1016mb 41f
5:12 3 5 mph 1016mb 41f
5:06 3 5 mph 1016.1mb 41f
5:00 3
mph
1016.1mb 41f
4:54 3 5 mph 1016.1mb 41f
4:48 3 5 mph 1016.1mb 41f
4:42 5 6 mph 1016mb 41f
4:36 3 5 mph 1016.1mb 41f
4:30 5
mph
1016.1mb 41f
4:24 2 5 mph 1016.2mb 41f
4:18 3 5 mph 1016.3mb 41f
4:12 5 6 mph 1016.4mb 41f
4:06 2 3 mph 1016.5mb 41f
4:00 2 3 mph 1016.7mb 41f
3:54 2 5 mph 1016.8mb 41f
3:48 2 6 mph 1016.9mb 41f
3:42 2 3 mph 1016.9mb 42f
3:36 2 3 mph 1016.8mb 42f
3:30 3 5 mph 1016.6mb 42f
3:24 3 5 mph 1016.5mb 41f
3:18 3 5 mph 1016.5mb 41f
3:12 3 5 mph 1016.6mb 41f
3:06 3
mph
1016.7mb 42f
3:00 3 5 mph 1016.7mb 42f
2:54 3
mph
1016.8mb 42f
2:48 3 5 mph 1016.7mb 41f
2:42 5 6 mph 1016.6mb 41f
2:36 5 6 mph 1016.7mb 41f
2:30 5 6 mph 1016.7mb 41f
2:24 5 6 mph 1016.7mb 41f
2:18 6 7 mph 1016.7mb 40f
2:12 6 7 mph 1016.7mb 40f
2:06 7 8 mph 1016.8mb 40f
2:00 6 7 mph 1016.9mb 40f
1:54 5 6 mph 1016.9mb 41f
1:48 5 7 mph 1016.9mb 40f
1:42 3 5 mph 1017mb 40f
1:36 5
mph
1017.1mb 40f
1:30 5 6 mph 1017.1mb 40f
1:24 6 7 mph 1017mb 40f
1:18 6 7 mph 1017mb 40f
1:12 6 7 mph 1017.1mb 40f
1:06 5 6 mph 1017.3mb 40f
1:00 5 6 mph 1017.4mb 40f
12:54 3 5 mph 1017.5mb 40f
12:48 3
mph
1017.6mb 40f
12:42 2 3 mph 1017.7mb 40f
12:36 2 3 mph 1017.9mb 40f
12:30 2 3 mph 1017.9mb 40f
12:24 2 3 mph 1018mb 40f
12:18 2 6 mph 1018mb 40f
12:12 3 5 mph 1018.1mb 40f
12:06 3 5 mph 1018mb 40f
12:00 2 5 mph 1018.1mb 41f
11:54 1 2 mph 1018.1mb 41f
11:48 2 3 mph 1018.1mb 40f
11:42 3 5 mph 1018mb 40f
11:36 3 5 mph 1018.1mb 40f
11:30 5 6 mph 1018.2mb 40f
11:24 5
mph
1018.2mb 40f
11:18 5 6 mph 1018.3mb 40f
11:12 5 6 mph 1018.3mb 40f
11:06 6 8 mph 1018.3mb 39f
11:00 6 7 mph 1018.4mb 39f
10:54 6 8 mph 1018.5mb 39f
10:48 5 6 mph 1018.9mb 39f
10:42 5 7 mph 1018.9mb 39f
10:36 6
mph
1019.1mb 39f
10:30 5 6 mph 1019.4mb 39f
10:24 3 6 mph 1019.5mb 39f
10:18 5
mph
1019.6mb 39f
10:12 3
mph
1019.7mb 39f
10:06 2
mph
1019.9mb 39f
10:00 1 3 mph 1019.9mb 39f
9:54 1 2 mph 1019.8mb 40f
9:48 2 3 mph 1019.8mb 39f
9:42 2 3 mph 1019.9mb 39f
9:36 2 3 mph 1019.9mb 39f
9:30 2
mph
1019.8mb 39f
9:24 3
mph
1019.9mb 39f
9:18 2 3 mph 1019.9mb 39f
9:12 2 3 mph 1019.9mb 39f
9:06 3
mph
1019.8mb 39f
9:00 3 5 mph 1019.8mb 39f
8:54 2 3 mph 1019.8mb 39f
8:48 2 3 mph 1019.7mb 39f
8:42 2 5 mph 1019.7mb 39f
8:36 3 5 mph 1019.6mb 39f
8:30 2 3 mph 1019.6mb 39f
8:24 3 5 mph 1019.5mb 38f
8:18 2 3 mph 1019.5mb 38f
8:12 2 3 mph 1019.6mb 38f
8:06  -  2 mph 1019.7mb 38f
8:00 3 5 mph 1019.6mb 38f
7:54 3 5 mph 1019.5mb 38f
7:48 3 5 mph 1019.5mb 37f
7:42 5 6 mph 1019.5mb 37f
7:36 3 5 mph 1019.5mb 37f
7:30 3 5 mph 1019.5mb 37f
7:24 2 3 mph 1019.5mb 37f
7:18  -  2 mph 1019.5mb 37f
7:12 1 2 mph 1019.6mb 37f
7:06  -  2 mph 1019.5mb 37f
7:00 1 2 mph 1019.5mb 37f
6:54 2
mph
1019.5mb 37f
6:48 2
mph
1019.5mb 38f
6:42 1 2 mph 1019.3mb 38f
6:36 2 3 mph 1019.3mb 38f
6:30  -  1 mph 1019.3mb 38f
6:24  -  mph 1019.2mb 38f
6:18  -  1 mph 1019.2mb 38f
6:12 1 2 mph 1019.3mb 38f
6:06 1 2 mph 1019.3mb 37f
6:00  -  2 mph 1019.2mb 37f
5:54 1 3 mph 1019.2mb 37f
5:48 1 3 mph 1019.2mb 37f
5:42 3 5 mph 1019.2mb 37f
5:36 3 6 mph 1019.2mb 38f
5:30  -  2 mph 1019.1mb 38f
5:24 2 5 mph 1019mb 38f
5:18 3 6 mph 1018.9mb 38f
5:12 5 7 mph 1018.8mb 38f
5:06  -  2 mph 1018.6mb 37f
5:00 2 3 mph 1018.7mb 37f
4:54 3 5 mph 1018.7mb 37f
4:48 5 7 mph 1018.8mb 37f
4:42 5 6 mph 1019mb 37f
4:36 3 6 mph 1019.1mb 37f
4:30 3 6 mph 1019.1mb 36f
4:24 3 6 mph 1019.2mb 37f
4:18 5 7 mph 1019.3mb 36f
4:12 3 5 mph 1019.4mb 36f
4:06 3 5 mph 1019.4mb 36f
4:00 3 5 mph 1019.5mb 35f
3:54 3 5 mph 1019.6mb 35f
3:48 3 5 mph 1019.6mb 35f
3:42 2 3 mph 1019.6mb 35f
3:36 3 6 mph 1019.7mb 36f
3:30 3 5 mph 1019.7mb 36f
3:24 3 6 mph 1019.7mb 36f
3:18 5 7 mph 1019.7mb 36f
3:12 5 7 mph 1019.6mb 36f
3:06 3 5 mph 1019.6mb 36f
3:00 3 6 mph 1019.6mb 36f
2:54 5 7 mph 1019.6mb 36f
2:48 2 3 mph 1019.7mb 35f
2:42 2 5 mph 1019.7mb 36f
2:36 5 6 mph 1019.7mb 36f
2:30 3 5 mph 1019.8mb 36f
2:24 2 3 mph 1019.9mb 36f
2:18 2 3 mph 1019.9mb 36f
2:12 3 5 mph 1019.8mb 36f
2:06  -  mph 1019.8mb 35f
2:00  -  2 mph 1019.8mb 36f
1:54 5 6 mph 1019.8mb 36f
1:48 6 7 mph 1019.7mb 36f
1:42 6 7 mph 1019.8mb 35f
1:36 5 7 mph 1019.7mb 35f
1:30 5 7 mph 1019.7mb 35f
1:24 3 6 mph 1019.7mb 35f
1:18 2 3 mph 1019.7mb 34f
1:12 3 6 mph 1019.7mb 34f
1:06 3 5 mph 1019.6mb 34f
1:00 5 7 mph 1019.6mb 34f
12:54 5 6 mph 1019.5mb 34f
12:48 3 6 mph 1019.6mb 34f
12:42 3 5 mph 1019.6mb 34f
12:36 2 3 mph 1019.7mb 34f
12:30 2 3 mph 1019.7mb 34f
12:24 2
mph
1019.8mb 34f
12:18 2 3 mph 1019.8mb 35f
12:12 2
mph
1019.8mb 35f
12:06 2 3 mph 1019.8mb 35f
12:00 2
mph
1019.7mb 34f
Mo 12/15 11:54 2
mph
1019.7mb 34f
11:48 2
mph
1019.6mb 35f
11:42 2
mph
1019.5mb 34f
11:36  -  1 mph 1019.5mb 35f
11:30  -  1 mph 1019.4mb 35f
11:24 1 2 mph 1019.4mb 34f
11:18 2 3 mph 1019.4mb 34f
11:12  -  1 mph 1019.4mb 35f
11:06  -  1 mph 1019.5mb 35f
11:00  -  mph 1019.6mb 35f
10:54  -  mph 1019.6mb 35f
10:48 1 2 mph 1019.5mb 35f
10:42  -  mph 1019.4mb 36f
10:36  -  1 mph 1019.5mb 35f
10:30  -  1 mph 1019.5mb 35f
10:24  -  1 mph 1019.5mb 35f
10:18  -  1 mph 1019.4mb 35f
10:12 1
mph
1019.4mb 35f
10:06  -  1 mph 1019.4mb 36f
10:00  -  mph 1019.4mb 35f
9:54  -  1 mph 1019.4mb 36f
9:48  -  1 mph 1019.4mb 36f
9:42 2
mph
1019.3mb 36f
9:36 2
mph
1019.3mb 36f
9:30 2 3 mph 1019.2mb 36f
9:24 1 2 mph 1019.3mb 36f
9:18 2
mph
1019.3mb 36f
9:12 2 3 mph 1019.2mb 36f
9:06 2 3 mph 1019.3mb 36f
9:00 1 2 mph 1019.2mb 36f
8:54 1 2 mph 1019.2mb 37f
8:48 2
mph
1019.2mb 37f
8:42 1 2 mph 1019.3mb 37f
8:36 2 3 mph 1019.3mb 37f
8:30 2 3 mph 1019.3mb 37f
8:24 2 3 mph 1019.4mb 36f
8:18 2 3 mph 1019.6mb 36f
8:12 3 5 mph 1019.5mb 36f
8:06 3
mph
1019.5mb 36f
8:00 2 3 mph 1019.6mb 37f
7:54 2 5 mph 1019.5mb 37f
7:48 2 3 mph 1019.5mb 37f
7:42 2 3 mph 1019.4mb 37f
7:36 3 5 mph 1019.4mb 37f
7:30 2 3 mph 1019.3mb 37f
7:24 2 3 mph 1019.2mb 37f
7:18 3 5 mph 1019.1mb 37f
7:12 3 5 mph 1019mb 37f
7:06 3 5 mph 1018.9mb 37f
7:00 3 5 mph 1018.9mb 37f
6:54 5 6 mph 1018.8mb 37f
6:48 3 6 mph 1018.8mb 37f
6:42 5 7 mph 1018.8mb 38f
6:36 5 7 mph 1018.7mb 38f
6:30 5 6 mph 1018.6mb 38f
6:24 5 8 mph 1018.5mb 38f
6:18 6 8 mph 1018.5mb 38f
6:12 5 8 mph 1018.5mb 38f
6:06 3 6 mph 1018.4mb 38f
6:00 3 6 mph 1018.2mb 38f
5:54 3 6 mph 1018mb 38f
5:48 3 5 mph 1018mb 38f
5:42 3 6 mph 1017.9mb 38f
5:36 3 5 mph 1017.8mb 38f
5:30 2 5 mph 1017.7mb 38f
5:24 3 7 mph 1017.6mb 38f
5:18 3 6 mph 1017.6mb 38f
5:12 2 6 mph 1017.4mb 38f
5:06 1 2 mph 1017.3mb 40f
5:00  -  1 mph 1017.3mb 40f
4:54 1 2 mph 1017.1mb 40f
4:48  -  1 mph 1017.1mb 40f
4:42 2
mph
1017mb 40f
4:36 2
mph
1017mb 40f
4:30 1
mph
1017mb 40f
4:24  -  1 mph 1017mb 40f
4:18  -  mph 1016.9mb 40f
4:12  -  1 mph 1016.9mb 41f
4:06 1
mph
1016.9mb 41f
4:00 1
mph
1016.8mb 42f
3:54  -  mph 1016.8mb 42f
3:48  -  mph 1016.7mb 42f
3:42  -  1 mph 1016.6mb 42f
3:36 2 3 mph 1016.5mb 42f
3:30 2 3 mph 1016.5mb 42f
3:24 2 3 mph 1016.4mb 42f
3:18 3
mph
1016.3mb 42f
3:12 2 3 mph 1016.3mb 42f
3:06 2 3 mph 1016.3mb 42f
3:00 2
mph
1016.4mb 42f
2:54 2 3 mph 1016.4mb 42f
2:48 2 3 mph 1016.4mb 42f
2:42 3
mph
1016.3mb 42f
2:36 2 3 mph 1016.3mb 42f
2:30 2 3 mph 1016.3mb 42f
2:24 2
mph
1016.3mb 42f
2:18 2 3 mph 1016.2mb 42f
2:12 2 3 mph 1016.1mb 41f
2:06 3 5 mph 1016mb 41f
2:00 3 5 mph 1016mb 41f
1:54 3 5 mph 1016mb 41f
1:48 3 5 mph 1015.9mb 41f
1:42 3 5 mph 1015.9mb 41f
1:36 5
mph
1015.8mb 41f
1:30 3 5 mph 1015.8mb 43f
1:24 2 3 mph 1015.8mb 42f
1:18 2 3 mph 1015.8mb 42f
1:12 3
mph
1015.7mb 41f
1:06 5
mph
1015.7mb 41f
1:00 3 6 mph 1015.7mb 42f
12:54 5 7 mph 1015.9mb 41f
12:48 2 3 mph 1016mb 41f
12:42 3
mph
1016mb 41f
12:36 5 6 mph 1016mb 41f
12:30 5 6 mph 1015.9mb 40f
12:24 5 6 mph 1015.9mb 40f
12:18 5 6 mph 1015.9mb 40f
12:12 5 6 mph 1016mb 40f
12:06 5 6 mph 1016mb 40f
12:00 6 7 mph 1016mb 40f
11:54 6 8 mph 1016mb 40f
11:48 6 7 mph 1016mb 40f
11:42 6 9 mph 1016mb 39f
11:36 7 8 mph 1016mb 39f
11:30 7 9 mph 1016mb 39f
11:24 7 8 mph 1016mb 39f
11:18 7 9 mph 1015.9mb 40f